createdAt,value
2019-05-13T00:08:26.000Z,37.9
2019-05-13T00:18:22.000Z,38.1
2019-05-13T00:28:23.000Z,38.2
2019-05-13T00:38:22.000Z,38.2
2019-05-13T00:48:22.000Z,38.6
2019-05-13T00:58:22.000Z,38.6
2019-05-13T01:08:22.000Z,39
2019-05-13T01:18:22.000Z,38.9
2019-05-13T01:28:22.000Z,39.2
2019-05-13T01:38:22.000Z,39.6
2019-05-13T01:48:22.000Z,39.5
2019-05-13T01:58:22.000Z,39.5
2019-05-13T02:08:22.000Z,39.7
2019-05-13T02:28:22.000Z,39.6
2019-05-13T02:38:22.000Z,39.8
2019-05-13T02:48:22.000Z,39.8
2019-05-13T02:58:22.000Z,40.1
2019-05-13T03:08:22.000Z,39.8
2019-05-13T03:18:23.000Z,40
2019-05-13T03:28:22.000Z,40.3
2019-05-13T03:38:22.000Z,40.1
2019-05-13T03:48:23.000Z,39.9
2019-05-13T03:58:24.000Z,39.7
2019-05-13T04:08:22.000Z,39.9
2019-05-13T04:18:23.000Z,39.9
2019-05-13T04:28:23.000Z,39.6
2019-05-13T04:38:24.000Z,39.7
2019-05-13T04:48:22.000Z,39.8
2019-05-13T04:58:23.000Z,39.9
2019-05-13T05:08:23.000Z,39.7
2019-05-13T05:18:22.000Z,41
2019-05-13T05:28:24.000Z,41.7
2019-05-13T05:38:23.000Z,42.5
2019-05-13T05:48:25.000Z,43.6
2019-05-13T05:58:23.000Z,43.1
2019-05-13T06:08:23.000Z,45.7
2019-05-13T06:18:23.000Z,46
2019-05-13T06:38:23.000Z,46.4
2019-05-13T06:48:23.000Z,49
2019-05-13T06:58:23.000Z,49.4
2019-05-13T07:08:23.000Z,49.6
2019-05-13T07:18:23.000Z,49.7
2019-05-13T07:28:23.000Z,50
2019-05-13T07:38:23.000Z,50.1
2019-05-13T07:48:24.000Z,50.4
2019-05-13T07:58:23.000Z,49.8
2019-05-13T08:08:23.000Z,50.1
2019-05-13T08:18:23.000Z,50.8
2019-05-13T08:28:25.000Z,51.5
2019-05-13T08:38:23.000Z,51.5
2019-05-13T08:48:23.000Z,51.4
2019-05-13T08:58:23.000Z,51.6
2019-05-13T09:08:23.000Z,51.4
2019-05-13T09:18:23.000Z,51.4
2019-05-13T09:28:23.000Z,50.9
2019-05-13T09:38:23.000Z,51.4
2019-05-13T09:48:23.000Z,51.3
2019-05-13T09:58:23.000Z,46.6
2019-05-13T10:08:23.000Z,50.6
2019-05-13T10:18:23.000Z,50.5
2019-05-13T10:28:23.000Z,50.9
2019-05-13T10:38:23.000Z,51.1
2019-05-13T10:48:23.000Z,51.2
2019-05-13T10:58:23.000Z,51.5
2019-05-13T11:08:23.000Z,51.7
2019-05-13T11:18:23.000Z,52.6
2019-05-13T11:28:23.000Z,53
2019-05-13T11:38:23.000Z,53.5
2019-05-13T11:48:24.000Z,53.5
2019-05-13T11:58:23.000Z,53.5
2019-05-13T12:08:23.000Z,53.6
2019-05-13T12:18:24.000Z,53.5
2019-05-13T12:28:24.000Z,53.7
2019-05-13T12:38:24.000Z,53.7
2019-05-13T12:58:24.000Z,53.7
2019-05-13T13:08:24.000Z,53.5
2019-05-13T13:18:24.000Z,53.3
2019-05-13T13:28:24.000Z,53.4
2019-05-13T13:38:24.000Z,52.7
2019-05-13T13:48:24.000Z,52.3
2019-05-13T13:58:24.000Z,51.6
2019-05-13T14:08:24.000Z,50.9
2019-05-13T14:18:24.000Z,50.3
2019-05-13T14:28:25.000Z,50.1
2019-05-13T14:38:24.000Z,49.8
2019-05-13T14:48:24.000Z,49.7
2019-05-13T14:58:27.000Z,49.7
2019-05-13T15:08:24.000Z,51.7
2019-05-13T15:18:24.000Z,52.4
2019-05-13T15:48:24.000Z,52.7
2019-05-13T15:58:24.000Z,53.2
2019-05-13T16:08:24.000Z,52.7
2019-05-13T16:18:24.000Z,52.6
2019-05-13T16:28:24.000Z,52.6
2019-05-13T16:38:24.000Z,52.6
2019-05-13T16:58:28.000Z,52.5
2019-05-13T17:08:24.000Z,52.4
2019-05-13T17:18:24.000Z,52.3
2019-05-13T17:38:24.000Z,52.3
2019-05-13T17:48:24.000Z,52.1
2019-05-13T17:58:25.000Z,52
2019-05-13T18:08:26.000Z,52
2019-05-13T18:18:24.000Z,52
2019-05-13T18:28:24.000Z,51.9
2019-05-13T18:38:24.000Z,51.7
2019-05-13T18:48:24.000Z,51.7
2019-05-13T18:58:24.000Z,51.7
2019-05-13T19:08:24.000Z,51.7
2019-05-13T19:18:27.000Z,51.7
2019-05-13T19:28:25.000Z,51.8
2019-05-13T19:38:25.000Z,51.8
2019-05-13T19:48:25.000Z,51.8
2019-05-13T19:58:25.000Z,51.9
2019-05-13T20:18:25.000Z,51.9
2019-05-13T20:28:25.000Z,51.9
2019-05-13T20:58:25.000Z,51.9
2019-05-13T21:08:25.000Z,36.6
2019-05-13T21:18:25.000Z,36.3
2019-05-13T21:28:28.000Z,35.4
2019-05-13T21:38:25.000Z,35.3
2019-05-13T21:48:26.000Z,35
2019-05-13T21:58:27.000Z,35.5
2019-05-13T22:08:25.000Z,36.2
2019-05-13T22:18:25.000Z,37
2019-05-13T22:28:25.000Z,36.4
2019-05-13T22:38:25.000Z,36.3
2019-05-13T22:48:25.000Z,36.4
2019-05-13T22:58:25.000Z,36.9
2019-05-13T23:08:25.000Z,37
2019-05-13T23:18:25.000Z,37.3
2019-05-13T23:28:25.000Z,37
2019-05-13T23:38:25.000Z,37.4
2019-05-13T23:48:25.000Z,38.3
2019-05-13T23:58:25.000Z,37.4
